Terminal Aerodrome Forecast
Issued by NWS Cleveland, OH

Home | Current Version | Previous Version | Graphics & Text | Print | Product List | Glossary On
Versions: 1 2 3 4 5 6 7 8 9 10 11 12 13 14 15 16 17 18 19 20
000
FTUS41 KCLE 270540
TAFTOL
TAF
KTOL 270540Z 2706/2806 04010KT P6SM -RA SCT050 OVC100
      TEMPO 2706/2708 3SM RA BR OVC035
     FM270800 03014G20KT 3SM -RA BR OVC025
      TEMPO 2708/2712 2SM -RA BR OVC008
     FM271200 02018G28KT 3SM SHRA BR OVC012
     FM271600 35022G32KT 5SM -SHRA BR OVC012=

USA.gov is the U.S. government's official web portal to all federal, state and local government web resources and services.